Time;durP1;ratioP1;P1;durP2;ratioP2;P2;SDS_P1;SDS_P2;PMS_P1;PMS_P2;Temp;Humidity;BMP_temperature;BMP_pressure;BME280_temperature;BME280_humidity;BME280_pressure;Samples;Min_cycle;Max_cycle;Signal;HPM_P1;HPM_P2
2021/11/21 00:02:05;;;;;;;41.67;28.30;;;;;;;8.74;59.81;99765.72;5034761;28;20088;-81
2021/11/21 00:04:31;;;;;;;39.00;27.05;;;;;;;9.48;59.61;99907.16;5034690;28;20025;-83
2021/11/21 00:06:56;;;;;;;33.22;23.13;;;;;;;9.66;59.87;99922.84;5034648;28;20117;-83
2021/11/21 00:09:22;;;;;;;30.50;23.27;;;;;;;9.01;59.53;99841.03;5033050;28;20411;-82
2021/11/21 00:11:47;;;;;;;33.65;23.83;;;;;;;9.19;59.56;99882.06;5034273;28;20482;-83
2021/11/21 00:14:13;;;;;;;29.48;23.77;;;;;;;8.51;59.29;99768.94;5033326;28;20430;-83
2021/11/21 00:16:38;;;;;;;30.70;23.92;;;;;;;9.41;59.84;99925.44;5034371;28;20079;-83
2021/11/21 00:19:04;;;;;;;31.65;23.70;;;;;;;9.35;59.76;99928.72;5034017;28;20029;-83
2021/11/21 00:21:30;;;;;;;30.48;23.85;;;;;;;9.32;59.75;99928.22;5034032;28;20022;-83
2021/11/21 00:23:56;;;;;;;30.55;23.80;;;;;;;8.93;59.98;99886.59;5034233;28;20558;-81
2021/11/21 00:26:21;;;;;;;31.95;25.38;;;;;;;8.52;59.83;99819.78;5032851;28;20033;-83
2021/11/21 00:28:49;;;;;;;28.42;21.67;;;;;;;8.77;60.08;99878.59;5034139;28;20025;-82
2021/11/21 00:31:15;;;;;;;25.27;19.95;;;;;;;7.72;59.57;99734.16;5034135;28;20053;-82
2021/11/21 00:33:40;;;;;;;26.02;21.23;;;;;;;9.03;60.03;99929.44;5032646;28;20562;-83
2021/11/21 00:36:06;;;;;;;25.63;21.65;;;;;;;8.35;59.94;99824.13;5032403;28;20487;-83
2021/11/21 00:38:31;;;;;;;31.13;22.67;;;;;;;8.97;60.17;99935.34;5034079;28;20029;-83
2021/11/21 00:40:57;;;;;;;27.60;22.98;;;;;;;8.93;60.19;99941.91;5032720;28;20121;-84
2021/11/21 00:43:23;;;;;;;25.33;20.85;;;;;;;8.27;59.72;99845.94;5032660;28;20057;-82
2021/11/21 00:45:48;;;;;;;26.92;20.98;;;;;;;8.82;59.93;99932.44;5033813;28;20021;-82
2021/11/21 00:48:20;;;;;;;24.92;19.83;;;;;;;8.65;59.91;99911.44;5032328;28;20024;-83
2021/11/21 00:50:46;;;;;;;24.90;19.95;;;;;;;8.75;60.14;99933.22;5032305;28;20092;-83
2021/11/21 00:53:13;;;;;;;23.45;19.38;;;;;;;8.75;60.16;99930.59;5032218;28;20395;-83
2021/11/21 00:55:41;;;;;;;20.20;17.13;;;;;;;8.57;60.00;99899.91;5033432;28;20099;-83
2021/11/21 00:58:10;;;;;;;20.60;16.88;;;;;;;8.68;59.80;99922.50;5033595;28;20509;-82
2021/11/21 01:00:39;;;;;;;16.95;14.88;;;;;;;8.13;60.21;99859.63;5032239;28;20036;-82
2021/11/21 01:03:06;;;;;;;18.50;16.38;;;;;;;8.18;60.24;99878.44;5033378;28;20039;-82
2021/11/21 01:05:31;;;;;;;22.35;16.83;;;;;;;7.91;59.97;99818.06;5033323;28;20152;-82
2021/11/21 01:07:57;;;;;;;19.20;16.77;;;;;;;8.12;60.03;99852.72;5033270;28;20535;-83
2021/11/21 01:10:23;;;;;;;19.05;15.55;;;;;;;7.75;59.85;99783.78;5033360;28;20025;-83
2021/11/21 01:12:53;;;;;;;22.92;18.88;;;;;;;8.41;60.34;99893.72;5032093;28;20024;-83
2021/11/21 01:15:18;;;;;;;23.35;19.15;;;;;;;8.46;59.69;99900.16;5033247;28;20086;-83
2021/11/21 01:17:45;;;;;;;23.98;19.05;;;;;;;8.53;60.24;99911.72;5033405;28;20021;-84
2021/11/21 01:20:11;;;;;;;23.20;18.20;;;;;;;8.44;59.80;99917.91;5032981;28;20030;-83
2021/11/21 01:22:37;;;;;;;20.27;16.92;;;;;;;7.07;60.30;99681.13;5033144;28;20506;-84
2021/11/21 01:25:05;;;;;;;21.77;16.45;;;;;;;8.29;59.85;99866.81;5031857;28;20104;-84
2021/11/21 01:27:30;;;;;;;21.55;17.38;;;;;;;8.25;59.74;99876.81;5031907;28;20150;-83
2021/11/21 01:29:56;;;;;;;25.58;20.38;;;;;;;8.11;59.94;99869.47;5033194;28;20555;-83
2021/11/21 01:32:22;;;;;;;23.23;17.75;;;;;;;7.84;60.13;99825.75;5033112;28;20103;-83
2021/11/21 01:34:47;;;;;;;24.70;19.48;;;;;;;8.33;59.83;99894.50;5033233;28;20025;-84
2021/11/21 01:37:13;;;;;;;21.50;16.83;;;;;;;7.95;59.95;99838.63;5033119;28;20104;-85
2021/11/21 01:39:38;;;;;;;22.38;18.35;;;;;;;7.60;59.97;99786.13;5033006;28;20033;-83
2021/11/21 01:42:04;;;;;;;22.38;17.38;;;;;;;8.18;60.09;99875.78;5031728;28;20030;-83
2021/11/21 01:44:30;;;;;;;17.23;14.98;;;;;;;8.12;60.21;99871.13;5032701;28;20022;-83
2021/11/21 01:46:55;;;;;;;20.42;15.98;;;;;;;7.97;60.41;99839.31;5031324;28;20453;-82
2021/11/21 01:49:21;;;;;;;24.73;16.45;;;;;;;7.61;60.15;99800.94;5032603;28;20025;-83
2021/11/21 01:51:47;;;;;;;18.98;16.58;;;;;;;7.53;60.13;99798.25;5032568;28;20022;-83
2021/11/21 01:54:15;;;;;;;23.02;17.13;;;;;;;7.37;60.11;99784.94;5032532;28;20059;-82
2021/11/21 01:56:41;;;;;;;30.20;21.55;;;;;;;8.26;60.31;99920.56;5031182;28;20025;-83
2021/11/21 01:59:07;;;;;;;24.88;18.15;;;;;;;8.00;60.33;99888.13;5032561;28;20026;-81
2021/11/21 02:01:34;;;;;;;22.98;17.58;;;;;;;8.22;60.18;99921.03;5031939;28;20025;-84
2021/11/21 02:03:59;;;;;;;21.35;16.70;;;;;;;7.10;60.57;99735.97;5032298;28;20029;-83
2021/11/21 02:06:26;;;;;;;20.13;16.67;;;;;;;8.20;60.66;99910.66;5032389;28;20030;-83
2021/11/21 02:08:53;;;;;;;21.45;15.98;;;;;;;6.43;60.10;99632.34;5032095;28;20032;-82
2021/11/21 02:11:24;;;;;;;21.05;17.52;;;;;;;8.17;60.55;99910.94;5030699;28;20032;-83
2021/11/21 02:13:50;;;;;;;20.10;16.73;;;;;;;7.68;59.88;99822.16;5032141;28;20555;-81
2021/11/21 02:16:18;;;;;;;20.88;15.82;;;;;;;7.53;60.31;99799.06;5030867;28;20072;-83
2021/11/21 02:18:47;;;;;;;19.90;15.77;;;;;;;8.07;60.27;99891.78;5032047;28;20032;-83
2021/11/21 02:21:14;;;;;;;21.25;16.45;;;;;;;7.67;60.35;99831.84;5032066;28;20032;-83
2021/11/21 02:23:40;;;;;;;21.33;17.13;;;;;;;7.11;60.66;99735.81;5031957;28;20025;-83
2021/11/21 02:26:06;;;;;;;20.20;15.93;;;;;;;7.47;60.40;99785.72;5031794;28;20113;-82
2021/11/21 02:28:33;;;;;;;18.30;15.77;;;;;;;8.06;60.46;99889.31;5030587;28;20037;-82
2021/11/21 02:30:59;;;;;;;20.00;16.40;;;;;;;7.92;60.56;99867.03;5030612;28;20018;-84
2021/11/21 02:33:24;;;;;;;19.10;15.55;;;;;;;7.67;60.52;99823.97;5030519;28;20501;-85
2021/11/21 02:35:57;;;;;;;16.85;14.98;;;;;;;7.33;60.66;99787.88;5030299;28;20048;-84
2021/11/21 02:38:25;;;;;;;19.98;16.23;;;;;;;7.58;60.36;99824.88;5031982;28;20029;-83
2021/11/21 02:40:53;;;;;;;21.38;17.27;;;;;;;7.83;60.42;99863.53;5031728;28;20498;-83
2021/11/21 02:43:21;;;;;;;23.02;17.77;;;;;;;7.98;60.81;99887.44;5031647;28;20439;-83
2021/11/21 02:45:48;;;;;;;22.27;18.45;;;;;;;7.72;60.44;99855.06;5031684;28;20021;-83
2021/11/21 02:48:16;;;;;;;18.45;16.48;;;;;;;8.04;60.22;99888.66;5031661;28;20104;-82
2021/11/21 02:50:43;;;;;;;23.02;18.70;;;;;;;7.64;60.59;99846.13;5030486;28;20037;-83
2021/11/21 02:53:08;;;;;;;21.50;17.10;;;;;;;7.46;60.18;99795.41;5031580;28;20088;-81
2021/11/21 02:55:34;;;;;;;23.05;18.33;;;;;;;7.71;60.52;99854.22;5031513;28;20045;-82
2021/11/21 02:58:02;;;;;;;21.00;17.00;;;;;;;7.58;59.95;99803.84;5031484;28;20036;-82
2021/11/21 03:00:28;;;;;;;21.67;16.90;;;;;;;7.97;60.80;99878.75;5031340;28;20527;-83
2021/11/21 03:02:54;;;;;;;22.60;18.50;;;;;;;7.51;60.25;99802.81;5031276;28;20029;-84
2021/11/21 03:05:20;;;;;;;23.13;18.70;;;;;;;7.74;60.49;99839.94;5030186;28;20035;-82
2021/11/21 03:07:47;;;;;;;22.60;18.58;;;;;;;7.84;60.57;99864.34;5030068;28;20021;-82
2021/11/21 03:10:18;;;;;;;22.30;19.17;;;;;;;7.05;60.17;99725.91;5030025;28;20033;-83
2021/11/21 03:12:45;;;;;;;20.50;17.75;;;;;;;7.81;60.86;99846.25;5030800;28;20483;-84
2021/11/21 03:15:10;;;;;;;23.08;17.95;;;;;;;7.50;60.29;99795.91;5029855;28;20111;-83
2021/11/21 03:17:39;;;;;;;22.20;17.98;;;;;;;7.63;60.65;99827.88;5031277;28;20068;-84
2021/11/21 03:20:05;;;;;;;22.52;18.17;;;;;;;7.56;60.24;99832.91;5029754;28;20025;-83
2021/11/21 03:22:30;;;;;;;21.27;18.40;;;;;;;7.47;60.39;99811.97;5031036;28;20505;-83
2021/11/21 03:24:56;;;;;;;26.00;19.17;;;;;;;7.75;60.41;99870.50;5031122;28;20034;-84
2021/11/21 03:27:23;;;;;;;23.38;18.40;;;;;;;7.13;60.51;99775.88;5031134;28;20104;-82
2021/11/21 03:29:49;;;;;;;24.88;18.52;;;;;;;7.22;60.56;99788.09;5029645;28;20029;-84
2021/11/21 03:32:16;;;;;;;24.45;18.63;;;;;;;7.22;60.55;99795.97;5029796;28;20419;-84
2021/11/21 03:34:42;;;;;;;22.60;16.67;;;;;;;7.03;60.72;99769.03;5030881;28;20079;-84
2021/11/21 03:37:08;;;;;;;24.27;19.45;;;;;;;7.42;60.63;99854.44;5031169;28;20465;-83
2021/11/21 03:39:34;;;;;;;32.83;22.65;;;;;;;7.16;60.58;99798.38;5031159;28;20034;-84
2021/11/21 03:42:00;;;;;;;24.38;17.55;;;;;;;7.25;60.72;99811.44;5031296;28;20467;-82
2021/11/21 03:44:26;;;;;;;21.20;16.48;;;;;;;7.61;60.48;99882.38;5031146;28;20104;-84
2021/11/21 03:46:51;;;;;;;24.63;19.27;;;;;;;6.46;60.93;99703.69;5031133;28;20025;-83
2021/11/21 03:49:16;;;;;;;23.30;19.60;;;;;;;7.54;60.28;99861.16;5030993;28;20021;-83
2021/11/21 03:51:42;;;;;;;20.13;16.40;;;;;;;7.41;60.60;99871.16;5031120;28;20387;-84
2021/11/21 03:54:07;;;;;;;22.33;16.65;;;;;;;7.43;60.76;99844.75;5030941;28;20053;-84
2021/11/21 03:56:33;;;;;;;21.25;17.60;;;;;;;7.13;60.84;99810.00;5030874;28;20064;-82
2021/11/21 03:58:59;;;;;;;19.35;16.35;;;;;;;7.20;60.37;99821.56;5029416;28;20021;-82
2021/11/21 04:01:24;;;;;;;23.50;17.30;;;;;;;7.56;60.52;99867.06;5030714;28;20029;-83
2021/11/21 04:03:50;;;;;;;22.50;17.17;;;;;;;6.91;60.34;99777.16;5030765;28;20030;-83
2021/11/21 04:06:16;;;;;;;20.15;16.98;;;;;;;7.57;60.50;99870.53;5030959;28;20036;-84
2021/11/21 04:08:42;;;;;;;25.90;22.23;;;;;;;7.40;60.44;99838.00;5029605;28;20026;-83
2021/11/21 04:11:08;;;;;;;26.77;19.52;;;;;;;7.33;60.67;99829.06;5029463;28;20029;-84
2021/11/21 04:13:34;;;;;;;31.65;22.63;;;;;;;7.52;60.35;99878.03;5030867;28;20418;-82
2021/11/21 04:15:59;;;;;;;30.55;23.27;;;;;;;6.91;60.67;99768.44;5029607;28;20029;-83
2021/11/21 04:18:25;;;;;;;33.03;25.15;;;;;;;6.50;60.00;99709.44;5030567;28;20026;-83
2021/11/21 04:20:51;;;;;;;34.35;25.20;;;;;;;7.54;60.03;99868.19;5029240;28;20107;-82
2021/11/21 04:23:17;;;;;;;33.15;25.00;;;;;;;7.13;60.08;99804.75;5030423;28;20033;-83
2021/11/21 04:25:42;;;;;;;26.65;22.77;;;;;;;6.82;60.30;99758.84;5033045;28;20029;-84
2021/11/21 04:28:09;;;;;;;29.20;23.20;;;;;;;7.26;60.33;99843.78;5032711;28;20506;-84
2021/11/21 04:30:35;;;;;;;37.97;26.00;;;;;;;7.24;60.05;99829.97;5033994;28;20017;-83
2021/11/21 04:33:03;;;;;;;41.78;27.17;;;;;;;7.48;60.72;99872.25;5034040;28;20033;-83
2021/11/21 04:35:29;;;;;;;31.55;23.23;;;;;;;7.06;59.83;99829.97;5032630;28;20029;-82
2021/11/21 04:37:54;;;;;;;28.52;21.35;;;;;;;7.25;60.28;99863.97;5032758;28;20033;-83
2021/11/21 04:40:20;;;;;;;26.77;21.90;;;;;;;7.07;60.39;99844.72;5033965;28;20029;-83
2021/11/21 04:42:46;;;;;;;33.53;25.20;;;;;;;7.28;60.03;99879.41;5032672;28;20460;-84
2021/11/21 04:45:12;;;;;;;35.28;25.17;;;;;;;7.33;59.99;99884.22;5033955;28;20030;-83
2021/11/21 04:47:38;;;;;;;27.67;21.35;;;;;;;7.29;60.50;99882.88;5033872;28;20422;-84
2021/11/21 04:50:09;;;;;;;25.63;20.98;;;;;;;6.18;60.47;99708.13;5033905;28;20022;-84
2021/11/21 04:52:35;;;;;;;26.73;20.17;;;;;;;7.30;60.04;99884.53;5032444;28;20052;-84
2021/11/21 04:55:00;;;;;;;23.75;19.42;;;;;;;7.31;60.51;99892.25;5033851;28;20025;-84
2021/11/21 04:57:26;;;;;;;24.45;17.10;;;;;;;6.32;60.72;99744.34;5032518;28;20029;-84
2021/11/21 04:59:52;;;;;;;21.88;17.65;;;;;;;6.85;60.16;99818.91;5032241;28;20079;-84
2021/11/21 05:02:17;;;;;;;24.02;17.67;;;;;;;7.07;60.02;99855.25;5033596;28;20494;-84
2021/11/21 05:04:43;;;;;;;23.00;19.42;;;;;;;6.56;60.56;99795.41;5032232;28;20177;-83
2021/11/21 05:07:09;;;;;;;23.17;17.52;;;;;;;7.05;60.73;99859.81;5033489;28;20037;-82
2021/11/21 05:09:34;;;;;;;27.45;19.10;;;;;;;6.58;60.17;99772.50;5033622;28;20451;-83
2021/11/21 05:12:00;;;;;;;25.80;19.98;;;;;;;6.47;60.47;99772.69;5033397;28;20026;-84
2021/11/21 05:14:26;;;;;;;33.45;23.83;;;;;;;6.92;60.60;99826.03;5033298;28;20029;-83
2021/11/21 05:16:51;;;;;;;27.63;21.15;;;;;;;6.09;60.20;99685.41;5031738;28;20091;-83
2021/11/21 05:19:17;;;;;;;27.90;20.15;;;;;;;6.94;60.04;99824.09;5033434;28;20087;-83
2021/11/21 05:21:42;;;;;;;28.77;20.83;;;;;;;6.65;59.78;99765.69;5032101;28;20471;-83
2021/11/21 05:24:08;;;;;;;28.38;20.50;;;;;;;7.22;60.11;99882.63;5033356;28;20457;-84
2021/11/21 05:26:34;;;;;;;23.27;18.75;;;;;;;6.33;59.72;99705.81;5033292;28;20030;-84
2021/11/21 05:28:59;;;;;;;23.55;19.45;;;;;;;6.61;59.75;99769.56;5031725;28;20025;-84
2021/11/21 05:31:25;;;;;;;31.27;24.50;;;;;;;7.32;59.93;99875.53;5032917;28;20044;-84
2021/11/21 05:33:52;;;;;;;36.22;27.30;;;;;;;7.30;60.06;99879.28;5033245;28;20032;-82
2021/11/21 05:36:18;;;;;;;84.43;51.00;;;;;;;6.95;60.60;99832.78;5030860;28;20044;-84
2021/11/21 05:38:44;;;;;;;80.72;50.55;;;;;;;7.27;60.65;99880.41;5032935;28;20025;-83
2021/11/21 05:41:09;;;;;;;83.03;51.72;;;;;;;6.53;60.09;99809.66;5031638;28;20509;-83
2021/11/21 05:43:35;;;;;;;69.05;45.58;;;;;;;6.74;60.11;99825.19;5032829;28;20029;-82
2021/11/21 05:46:00;;;;;;;62.03;41.80;;;;;;;7.23;59.93;99897.44;5032629;28;20029;-84
2021/11/21 05:48:26;;;;;;;64.85;43.60;;;;;;;6.92;59.99;99847.03;5031286;28;20103;-82
2021/11/21 05:50:52;;;;;;;64.60;44.40;;;;;;;6.75;59.97;99820.75;5032605;28;20033;-84
2021/11/21 05:53:17;;;;;;;55.75;39.03;;;;;;;6.38;60.04;99769.16;5031462;28;20060;-85
2021/11/21 05:55:43;;;;;;;64.05;40.45;;;;;;;6.90;59.87;99840.28;5032632;28;20481;-84
2021/11/21 05:58:09;;;;;;;93.15;57.90;;;;;;;7.16;59.88;99895.53;5031162;28;20033;-83
2021/11/21 06:00:35;;;;;;;104.68;66.78;;;;;;;6.46;59.73;99784.97;5030857;28;20502;-84
2021/11/21 06:03:00;;;;;;;105.47;72.55;;;;;;;6.43;60.10;99787.06;5030911;28;20060;-82
2021/11/21 06:05:27;;;;;;;115.25;80.32;;;;;;;7.22;59.98;99892.31;5032355;28;20052;-83
2021/11/21 06:07:53;;;;;;;104.63;74.60;;;;;;;7.23;59.76;99892.16;5031137;28;20548;-84
2021/11/21 06:10:19;;;;;;;94.22;68.90;;;;;;;6.96;59.70;99868.56;5031123;28;20047;-82
2021/11/21 06:12:46;;;;;;;84.15;63.47;;;;;;;6.52;59.92;99821.13;5032184;28;20029;-84
2021/11/21 06:15:12;;;;;;;73.07;57.35;;;;;;;7.20;59.83;99905.59;5030934;28;20108;-84
2021/11/21 06:17:38;;;;;;;71.95;50.67;;;;;;;6.76;59.48;99819.78;5030930;28;20025;-84
2021/11/21 06:20:06;;;;;;;59.63;44.17;;;;;;;6.58;60.10;99802.19;5031983;28;20044;-84
2021/11/21 06:22:32;;;;;;;57.63;41.97;;;;;;;6.89;59.70;99849.13;5030809;28;20038;-83
2021/11/21 06:24:58;;;;;;;53.15;37.40;;;;;;;6.51;59.92;99789.78;5031760;28;20446;-83
2021/11/21 06:27:23;;;;;;;54.42;40.03;;;;;;;6.38;60.01;99783.09;5031800;28;20072;-84
2021/11/21 06:29:49;;;;;;;39.72;31.52;;;;;;;6.84;60.10;99831.19;5030590;28;20036;-85
2021/11/21 06:32:15;;;;;;;37.78;29.48;;;;;;;7.18;60.23;99893.59;5030669;28;20026;-84
2021/11/21 06:34:40;;;;;;;34.08;29.05;;;;;;;6.43;60.60;99755.59;5030410;28;20049;-83
2021/11/21 06:37:08;;;;;;;35.33;27.58;;;;;;;7.29;59.97;99877.63;5031707;28;20465;-84
2021/11/21 06:39:33;;;;;;;30.55;23.65;;;;;;;7.21;60.28;99869.66;5031757;28;20441;-85
2021/11/21 06:41:59;;;;;;;35.28;28.58;;;;;;;6.91;60.24;99839.31;5030552;28;20025;-83
2021/11/21 06:44:24;;;;;;;37.55;29.17;;;;;;;6.81;60.33;99797.38;5031694;28;20025;-82
2021/11/21 06:46:50;;;;;;;32.88;27.60;;;;;;;5.71;60.34;99605.13;5030379;28;20029;-83
2021/11/21 06:49:16;;;;;;;32.42;26.33;;;;;;;7.13;60.28;99830.19;5031568;28;20022;-83
2021/11/21 06:51:43;;;;;;;39.00;32.28;;;;;;;7.06;60.40;99802.88;5031495;28;20052;-83
2021/11/21 06:54:10;;;;;;;45.72;36.05;;;;;;;7.59;60.07;99885.16;5030310;28;20032;-82
2021/11/21 06:56:36;;;;;;;44.60;33.70;;;;;;;7.62;60.62;99891.91;5030348;28;20036;-84
2021/11/21 06:59:02;;;;;;;46.38;34.33;;;;;;;7.30;60.55;99834.63;5031321;28;20463;-83
2021/11/21 07:01:27;;;;;;;47.53;36.17;;;;;;;7.16;60.15;99814.97;5031404;28;20036;-83
2021/11/21 07:03:52;;;;;;;48.28;34.72;;;;;;;7.50;60.21;99853.72;5030029;28;20036;-85
2021/11/21 07:06:29;;;;;;;52.15;36.38;;;;;;;7.79;60.50;99870.06;5031350;28;20064;-84
2021/11/21 07:08:55;;;;;;;48.97;36.08;;;;;;;7.67;60.77;99838.91;5030318;28;20418;-84
2021/11/21 07:11:21;;;;;;;49.88;35.60;;;;;;;7.96;60.71;99868.38;5031233;28;20033;-81
2021/11/21 07:13:47;;;;;;;51.25;37.80;;;;;;;7.73;60.38;99827.78;5031384;28;20049;-84
2021/11/21 07:16:12;;;;;;;48.03;37.20;;;;;;;7.38;60.47;99750.66;5031238;28;20045;-84
2021/11/21 07:18:38;;;;;;;68.38;50.33;;;;;;;7.20;60.17;99713.06;5031141;28;20022;-84
2021/11/21 07:21:03;;;;;;;62.30;47.28;;;;;;;8.31;60.51;99870.13;5031005;28;20504;-83
2021/11/21 07:23:29;;;;;;;64.35;45.72;;;;;;;7.92;59.93;99806.56;5031098;28;20029;-84
2021/11/21 07:25:54;;;;;;;56.30;43.22;;;;;;;8.16;60.48;99838.28;5031171;28;20431;-84
2021/11/21 07:28:20;;;;;;;57.53;43.85;;;;;;;8.00;60.11;99784.75;5029978;28;20513;-84
2021/11/21 07:30:45;;;;;;;58.50;44.38;;;;;;;8.14;59.69;99792.06;5031155;28;20033;-84
2021/11/21 07:33:11;;;;;;;54.70;41.13;;;;;;;8.54;60.10;99830.97;5029861;28;20037;-83
2021/11/21 07:35:36;;;;;;;47.75;35.22;;;;;;;8.51;59.68;99821.56;5030863;28;20498;-84
2021/11/21 07:38:02;;;;;;;44.67;36.63;;;;;;;8.91;60.20;99868.28;5031028;28;20030;-83
2021/11/21 07:40:27;;;;;;;47.75;35.33;;;;;;;8.31;60.16;99754.38;5031069;28;20625;-84
2021/11/21 07:42:53;;;;;;;51.83;40.97;;;;;;;8.32;59.62;99740.22;5031170;28;20029;-84
2021/11/21 07:45:19;;;;;;;49.53;39.75;;;;;;;8.90;59.97;99824.50;5029497;28;20108;-84
2021/11/21 07:47:45;;;;;;;53.10;39.50;;;;;;;8.81;59.93;99788.63;5030688;28;20163;-83
2021/11/21 07:50:11;;;;;;;46.30;35.65;;;;;;;9.40;59.89;99857.91;5029545;28;20021;-82
2021/11/21 07:52:37;;;;;;;49.88;31.67;;;;;;;9.48;59.95;99855.28;5030817;28;20030;-82
2021/11/21 07:55:03;;;;;;;36.72;31.42;;;;;;;8.96;60.25;99751.16;5030923;28;20034;-83
2021/11/21 07:57:28;;;;;;;36.92;28.23;;;;;;;9.29;60.67;99788.88;5031029;28;20026;-83
2021/11/21 07:59:54;;;;;;;37.72;26.27;;;;;;;8.89;61.07;99720.16;5032164;28;20426;-83
2021/11/21 08:02:19;;;;;;;34.78;26.75;;;;;;;9.10;61.20;99761.88;5034973;28;20064;-83
2021/11/21 08:04:45;;;;;;;30.33;24.88;;;;;;;9.38;61.51;99788.72;5034525;28;20041;-83
2021/11/21 08:07:10;;;;;;;23.45;20.02;;;;;;;9.55;61.17;99800.91;5033386;28;20018;-83
2021/11/21 08:09:36;;;;;;;24.30;20.13;;;;;;;9.85;61.37;99841.63;5034607;28;20104;-83
2021/11/21 08:12:02;;;;;;;24.02;18.48;;;;;;;8.97;60.57;99671.97;5034440;28;20033;-84
2021/11/21 08:14:27;;;;;;;22.80;18.30;;;;;;;9.92;60.65;99814.59;5033046;28;20039;-83
2021/11/21 08:16:53;;;;;;;17.98;15.18;;;;;;;9.90;61.22;99812.13;5033100;28;20116;-83
2021/11/21 08:19:18;;;;;;;18.25;13.98;;;;;;;9.39;60.67;99707.84;5034056;28;20494;-83
2021/11/21 08:21:44;;;;;;;17.75;14.30;;;;;;;9.54;60.67;99728.09;5034236;28;20465;-83
2021/11/21 08:24:09;;;;;;;14.13;11.80;;;;;;;9.62;60.82;99735.16;5034107;28;20056;-83
2021/11/21 08:26:36;;;;;;;14.70;13.10;;;;;;;10.28;60.58;99831.69;5034118;28;20025;-83
2021/11/21 08:29:04;;;;;;;15.90;13.30;;;;;;;10.32;60.24;99834.81;5032821;28;20391;-83
2021/11/21 08:31:30;;;;;;;14.10;11.93;;;;;;;9.79;60.31;99722.81;5034239;28;20033;-83
2021/11/21 08:33:55;;;;;;;13.57;11.20;;;;;;;9.70;60.00;99711.47;5034115;28;20029;-83
2021/11/21 08:36:21;;;;;;;13.77;12.32;;;;;;;10.47;60.04;99815.50;5032458;28;20482;-83
2021/11/21 08:38:47;;;;;;;14.48;11.88;;;;;;;9.88;59.48;99690.16;5033798;28;20033;-83
2021/11/21 08:41:12;;;;;;;14.57;12.60;;;;;;;10.40;60.09;99752.97;5034095;28;20057;-83
2021/11/21 08:43:38;;;;;;;15.63;12.73;;;;;;;10.35;59.70;99736.81;5033961;28;20029;-83
2021/11/21 08:46:03;;;;;;;13.32;11.75;;;;;;;10.09;59.81;99679.03;5033809;28;20029;-83
2021/11/21 08:48:29;;;;;;;16.95;12.10;;;;;;;10.61;59.21;99755.88;5033791;28;20030;-83
2021/11/21 08:50:56;;;;;;;15.63;11.77;;;;;;;10.42;58.96;99712.25;5033842;28;20414;-83
2021/11/21 08:53:22;;;;;;;14.68;12.13;;;;;;;10.74;59.28;99750.84;5032484;28;20571;-83
2021/11/21 08:55:48;;;;;;;14.30;12.07;;;;;;;10.89;58.56;99761.47;5032601;28;20029;-83
2021/11/21 08:58:13;;;;;;;14.73;11.95;;;;;;;11.12;58.64;99787.91;5033811;28;20449;-83
2021/11/21 09:00:39;;;;;;;17.05;13.00;;;;;;;11.20;58.78;99772.03;5033583;28;20025;-83
2021/11/21 09:03:04;;;;;;;15.93;14.23;;;;;;;10.88;58.27;99707.00;5033357;28;20112;-82
2021/11/21 09:05:30;;;;;;;13.93;12.43;;;;;;;11.17;58.17;99740.69;5033586;28;20029;-83
2021/11/21 09:07:56;;;;;;;13.75;12.30;;;;;;;11.19;58.07;99737.84;5033495;28;20519;-82
2021/11/21 09:10:22;;;;;;;14.18;11.65;;;;;;;11.02;57.73;99700.97;5033492;28;20025;-83
2021/11/21 09:12:49;;;;;;;15.70;12.90;;;;;;;11.57;57.29;99751.91;5032581;28;20037;-82
2021/11/21 09:15:18;;;;;;;13.18;11.85;;;;;;;11.38;57.40;99706.47;5031979;28;20131;-82
2021/11/21 09:17:50;;;;;;;14.40;12.77;;;;;;;11.70;57.00;99737.06;5033334;28;20029;-82
2021/11/21 09:20:15;;;;;;;;;;;;;;;11.69;57.72;99731.94;5033624;28;20022;-83
2021/11/21 09:22:41;;;;;;;11.70;10.45;;;;;;;11.88;56.88;99735.94;5033076;28;19916;-83
2021/11/21 09:25:07;;;;;;;12.10;9.77;;;;;;;11.96;57.12;99736.69;5031758;28;20060;-82
2021/11/21 09:27:33;;;;;;;12.90;10.73;;;;;;;11.18;56.38;99596.97;5033092;28;20026;-82
2021/11/21 09:29:59;;;;;;;13.05;10.38;;;;;;;11.94;56.53;99687.59;5033107;28;20013;-82
2021/11/21 09:32:24;;;;;;;12.50;10.93;;;;;;;11.70;56.12;99647.13;5032755;28;20033;-83
2021/11/21 09:34:50;;;;;;;13.25;10.95;;;;;;;12.01;56.14;99667.34;5031818;28;20664;-82
2021/11/21 09:37:16;;;;;;;12.13;10.70;;;;;;;12.50;55.67;99717.00;5032712;28;20487;-82
2021/11/21 09:39:41;;;;;;;13.13;10.85;;;;;;;12.31;55.70;99691.94;5032786;28;20025;-82
2021/11/21 09:42:07;;;;;;;12.10;10.65;;;;;;;12.31;55.39;99670.75;5032982;28;20503;-82
2021/11/21 09:44:33;;;;;;;14.40;12.90;;;;;;;12.01;55.14;99588.78;5032966;28;20556;-82
2021/11/21 09:46:59;;;;;;;12.60;11.30;;;;;;;11.18;55.12;99458.72;5032719;28;20105;-83
2021/11/21 09:49:26;;;;;;;13.27;10.57;;;;;;;12.79;55.54;99679.88;5032657;28;20026;-82
2021/11/21 09:51:52;;;;;;;13.32;11.88;;;;;;;12.60;55.07;99641.53;5031296;28;20029;-82
2021/11/21 09:54:18;;;;;;;12.20;10.88;;;;;;;12.58;55.13;99634.78;5031367;28;20572;-82
2021/11/21 09:56:45;;;;;;;13.80;12.38;;;;;;;12.15;54.80;99541.28;5031527;28;20116;-82
2021/11/21 09:59:12;;;;;;;13.13;11.02;;;;;;;13.07;54.86;99669.31;5032447;28;20461;-82
2021/11/21 10:01:42;;;;;;;14.90;11.40;;;;;;;12.49;54.88;99570.53;5032313;28;20493;-82
2021/11/21 10:04:12;;;;;;;12.15;10.63;;;;;;;11.64;54.83;99411.69;5032358;28;20025;-82
2021/11/21 10:06:48;;;;;;;11.57;10.38;;;;;;;12.84;54.64;99599.81;5032575;28;20021;-82
2021/11/21 10:09:18;;;;;;;12.25;11.05;;;;;;;12.56;54.93;99531.69;5032333;28;20022;-82
2021/11/21 10:12:02;;;;;;;12.43;11.13;;;;;;;13.04;54.70;99598.94;5030672;28;20091;-82
2021/11/21 10:14:28;;;;;;;12.93;10.25;;;;;;;12.64;54.84;99509.56;5032231;28;20030;-82
2021/11/21 10:16:54;;;;;;;11.23;10.07;;;;;;;13.43;54.37;99610.06;5031930;28;20029;-83
2021/11/21 10:19:20;;;;;;;11.20;9.85;;;;;;;13.19;54.73;99563.59;5032258;28;20033;-82
2021/11/21 10:21:45;;;;;;;12.93;11.50;;;;;;;13.55;54.38;99608.50;5032186;28;20110;-82
2021/11/21 10:24:10;;;;;;;12.70;10.75;;;;;;;13.54;54.51;99610.34;5031847;28;20104;-82
2021/11/21 10:26:36;;;;;;;14.55;10.27;;;;;;;13.22;54.54;99556.06;5030777;28;20041;-82
2021/11/21 10:29:02;;;;;;;12.30;9.95;;;;;;;13.54;54.25;99590.97;5031891;28;20052;-82
2021/11/21 10:31:30;;;;;;;10.45;9.25;;;;;;;13.22;54.14;99534.88;5031944;28;20025;-82
2021/11/21 10:33:58;;;;;;;10.98;9.73;;;;;;;13.31;54.04;99546.13;5030585;28;20036;-82
2021/11/21 10:36:27;;;;;;;11.15;9.95;;;;;;;13.67;54.18;99583.06;5030230;28;20036;-82
2021/11/21 10:39:05;;;;;;;11.70;9.77;;;;;;;13.21;54.10;99503.25;5031614;28;20061;-82
2021/11/21 10:41:37;;;;;;;10.40;9.35;;;;;;;13.73;54.07;99569.00;5030506;28;20029;-82
2021/11/21 10:44:04;;;;;;;;;;;;;;;13.66;54.65;99568.97;5030724;28;20027;-82
2021/11/21 10:46:36;;;;;;;10.60;9.10;;;;;;;13.53;54.24;99529.13;5031530;28;20374;-82
2021/11/21 10:49:16;;;;;;;12.55;9.98;;;;;;;13.82;54.20;99562.53;5031476;28;20521;-81
2021/11/21 10:51:43;;;;;;;10.25;9.25;;;;;;;13.58;54.40;99520.59;5031809;28;20025;-82
2021/11/21 10:54:29;;;;;;;10.45;9.35;;;;;;;13.80;54.43;99551.28;5031632;28;20418;-82
2021/11/21 10:56:57;;;;;;;10.40;8.48;;;;;;;13.82;54.46;99546.59;5031585;28;20026;-82
2021/11/21 10:59:48;;;;;;;11.27;9.32;;;;;;;13.84;54.34;99547.22;5030003;28;20490;-82
2021/11/21 11:02:20;;;;;;;10.52;9.43;;;;;;;13.53;54.40;99489.34;5030117;28;20510;-81
2021/11/21 11:05:11;;;;;;;9.85;8.85;;;;;;;13.81;54.19;99536.19;5030063;28;20034;-82
2021/11/21 11:07:54;;;;;;;11.55;7.60;;;;;;;13.22;54.26;99435.94;5030253;28;20033;-82
2021/11/21 11:10:26;;;;;;;8.35;7.45;;;;;;;13.82;54.36;99524.53;5031426;28;20473;-82
2021/11/21 11:13:03;;;;;;;9.02;8.15;;;;;;;13.81;54.40;99525.56;5031152;28;20044;-82
2021/11/21 11:15:30;;;;;;;10.75;8.25;;;;;;;13.41;54.49;99464.41;5031408;28;20040;-82
2021/11/21 11:17:56;;;;;;;12.40;9.07;;;;;;;12.38;54.34;99277.16;5031439;28;20028;-82
2021/11/21 11:20:23;;;;;;;9.68;8.68;;;;;;;13.64;54.16;99467.53;5031326;28;20483;-82
2021/11/21 11:22:49;;;;;;;13.73;8.88;;;;;;;13.99;54.15;99521.31;5031254;28;20021;-82